Terminal Aerodrome Forecast
Issued by NWS

Home | Current Version | Previous Version | Text Only | Print | Product List | Glossary On
Versions: 1 2 3 4 5 6 7 8 9 10 11 12 13 14 15 16 17 18 19 20 21 22 23
000
FTAK31 PAFA 291805 AAA
TAFAQT
TAF AMD
PAQT 291805Z 2918/3018 VRB04KT 2SM BR OVC005
     FM292100 06004KT 4SM BR OVC015
     FM301200 09006KT 4SM BR OVC007=

USA.gov is the U.S. government's official web portal to all federal, state and local government web resources and services.